»·PEaware :: ACA211 KPHX-KSAN

ACA211 :: KPHX-KSAN

FLIGHT INFORMATION

Flight Status: Arrived
Operator:
Air Canada
More flights by this operator :: More flights under this callsign
Pilot: Robert L. (6895)
Aircraft: AIRBUS A320
(A320)
More flights by this aircraft type
Origin: KPHX Phoenix Sky Harbor Intl
United States
Destination: KSAN San Diego Intl-Lindbergh
United States
More flights between these airports :: More routes between these airports
Route: +FYRBD1 MOHAK J2 HOGGZ LUCKI1
File this flight plan on PilotEdge
Remarks:
Altitude:
(Current/Filed)
36,000ft
Speed:
(Current/Filed)
456kts
Departed: 26-Jan-19 11:18 AM
Arrived: 26-Jan-19 12:08 PM
Distance/Time
Traveled:
264nm/0:50
Distance/Time
To Go:
Arrived

Flight Plot

Page will automatically refresh every two minutes.

Flight plan parsing failed; only flown route is shown


Map Options




Map Legend


Flown Route
Filed Route
Departure Airport
Arrival Airport
Navaid (VOR, NDB)
Fix

Horizontal Profiles

Position Reports

Time Latitude Longitude Heading Altitude Ground
Speed
26-Jan-19 10:48 33.433501 -112.014722 90 1118ft 0kts
26-Jan-19 10:49 33.433501 -112.014722 90 1118ft 0kts
26-Jan-19 10:50 33.433501 -112.014722 90 1118ft 0kts
26-Jan-19 10:51 33.433501 -112.014722 90 1118ft 0kts
26-Jan-19 10:52 33.433501 -112.014722 90 1118ft 0kts
26-Jan-19 10:53 33.433501 -112.014722 90 1118ft 0kts
26-Jan-19 10:54 33.433501 -112.014722 90 1118ft 0kts
26-Jan-19 10:55 33.433501 -112.014722 90 1118ft 0kts
26-Jan-19 10:56 33.433501 -112.014722 90 1118ft 0kts
26-Jan-19 10:57 33.433501 -112.014722 90 1118ft 0kts
26-Jan-19 10:58 33.433501 -112.014722 90 1118ft 0kts
26-Jan-19 10:59 33.433501 -112.014722 90 1118ft 0kts
26-Jan-19 11:00 33.433501 -112.014722 90 1118ft 0kts
26-Jan-19 11:01 33.433501 -112.014722 90 1118ft 0kts
26-Jan-19 11:02 33.433501 -112.014722 90 1118ft 0kts
26-Jan-19 11:03 33.433501 -112.014722 90 1118ft 0kts
26-Jan-19 11:04 33.433501 -112.014722 90 1118ft 0kts
26-Jan-19 11:05 33.433501 -112.014722 90 1118ft 0kts
26-Jan-19 11:06 33.433501 -112.014727 90 1118ft 0kts
26-Jan-19 11:07 33.433835 -112.015257 165 1118ft 2kts
26-Jan-19 11:08 33.434208 -112.015199 201 1118ft 0kts
26-Jan-19 11:09 33.434207 -112.015200 201 1118ft 0kts
26-Jan-19 11:10 33.434074 -112.015260 200 1118ft 0kts
26-Jan-19 11:11 33.434074 -112.015260 200 1118ft 0kts
26-Jan-19 11:12 33.433202 -112.015619 201 1118ft 9kts
26-Jan-19 11:13 33.432902 -112.021501 270 1118ft 22kts
26-Jan-19 11:14 33.432266 -112.026973 182 1118ft 10kts
26-Jan-19 11:15 33.432117 -112.026978 180 1118ft 0kts
26-Jan-19 11:16 33.431144 -112.026548 112 1118ft 11kts
26-Jan-19 11:17 33.430672 -111.995395 91 1738ft 181kts
26-Jan-19 11:18 33.432427 -111.925422 84 4764ft 237kts
26-Jan-19 11:19 33.412843 -111.853846 143 8542ft 260kts
26-Jan-19 11:20 33.353864 -111.883374 265 11850ft 275kts
26-Jan-19 11:21 33.360771 -111.976451 280 14371ft 312kts
26-Jan-19 11:22 33.323226 -112.082244 235 15572ft 396kts
26-Jan-19 11:23 33.256071 -112.190461 236 17669ft 415kts
26-Jan-19 11:24 33.186229 -112.303629 237 19712ft 428kts
26-Jan-19 11:25 33.114844 -112.419068 237 21761ft 434kts
26-Jan-19 11:26 33.044275 -112.532764 239 24425ft 422kts
26-Jan-19 11:27 32.974004 -112.645803 240 26474ft 426kts
26-Jan-19 11:28 32.942756 -112.776167 269 28041ft 412kts
26-Jan-19 11:29 32.924573 -112.910956 268 29754ft 416kts
26-Jan-19 11:30 32.905810 -113.048568 267 31321ft 420kts
26-Jan-19 11:31 32.888146 -113.177110 267 32537ft 423kts
26-Jan-19 11:32 32.869393 -113.312124 268 34319ft 410kts
26-Jan-19 11:33 32.850719 -113.446039 268 35536ft 409kts
26-Jan-19 11:34 32.831999 -113.579076 268 36303ft 407kts
26-Jan-19 11:35 32.812829 -113.714664 267 36307ft 428kts
26-Jan-19 11:36 32.792349 -113.858068 266 36303ft 451kts
26-Jan-19 11:37 32.775509 -114.006561 275 36302ft 446kts
26-Jan-19 11:38 32.778297 -114.153180 279 36303ft 442kts
26-Jan-19 11:39 32.784070 -114.299316 279 36296ft 442kts
26-Jan-19 11:40 32.802630 -114.441378 293 36306ft 430kts
26-Jan-19 11:41 32.839677 -114.575947 293 36305ft 429kts
26-Jan-19 11:42 32.875326 -114.712383 286 36295ft 435kts
26-Jan-19 11:43 32.876538 -114.856486 274 35881ft 442kts
26-Jan-19 11:44 32.873183 -115.001736 274 34926ft 440kts
26-Jan-19 11:45 32.869733 -115.146320 274 32366ft 440kts
26-Jan-19 11:46 32.866086 -115.293020 274 29292ft 447kts
26-Jan-19 11:47 32.850786 -115.441775 266 26233ft 455kts
26-Jan-19 11:48 32.828060 -115.587138 264 23822ft 441kts
26-Jan-19 11:49 32.804776 -115.729062 264 21366ft 428kts
26-Jan-19 11:50 32.783853 -115.865472 269 18951ft 412kts
26-Jan-19 11:51 32.773807 -116.000321 269 16389ft 405kts
26-Jan-19 11:52 32.763793 -116.132447 269 14026ft 392kts
26-Jan-19 11:53 32.754403 -116.253576 269 13177ft 342kts
26-Jan-19 11:54 32.746082 -116.361521 269 11802ft 322kts
26-Jan-19 11:55 32.737918 -116.466467 270 10430ft 306kts
26-Jan-19 11:56 32.729306 -116.563306 268 9331ft 291kts
26-Jan-19 11:57 32.720867 -116.649977 268 8096ft 287kts
26-Jan-19 11:58 32.712818 -116.749285 269 6926ft 271kts
26-Jan-19 11:59 32.702410 -116.834387 253 6114ft 250kts
26-Jan-19 12:00 32.680309 -116.905832 253 4639ft 231kts
26-Jan-19 12:01 32.680210 -116.968776 288 3937ft 144kts
26-Jan-19 12:02 32.690584 -117.011574 288 2549ft 132kts
26-Jan-19 12:03 32.701078 -117.052898 290 2213ft 132kts
26-Jan-19 12:04 32.710862 -117.095495 291 1711ft 133kts
26-Jan-19 12:05 32.721079 -117.137966 289 864ft 134kts
26-Jan-19 12:06 32.731200 -117.179937 289 40ft 129kts
26-Jan-19 12:07 32.734104 -117.195408 256 22ft 0kts
26-Jan-19 12:08 32.733344 -117.197692 277 21ft 3kts
26-Jan-19 12:09 32.733356 -117.197771 281 21ft 0kts

Navigation Log

Ident Type
Flight plan parsing failed, navigation log unavailable